createdAt,value
2018-09-25T00:01:21.353Z,11.30
2018-09-25T00:03:55.796Z,11.30
2018-09-25T00:06:30.778Z,11.20
2018-09-25T00:09:05.107Z,11.20
2018-09-25T00:11:41.284Z,11.10
2018-09-25T00:14:15.723Z,10.90
2018-09-25T00:16:50.532Z,10.90
2018-09-25T00:19:24.850Z,10.80
2018-09-25T00:21:59.722Z,10.80
2018-09-25T00:24:34.670Z,10.70
2018-09-25T00:27:09.217Z,10.60
2018-09-25T00:29:43.558Z,10.60
2018-09-25T00:32:18.271Z,10.40
2018-09-25T00:34:52.609Z,10.40
2018-09-25T00:37:28.346Z,10.30
2018-09-25T00:40:02.723Z,10.40
2018-09-25T00:42:37.362Z,10.30
2018-09-25T00:45:12.163Z,10.50
2018-09-25T00:47:46.771Z,12.10
2018-09-25T00:50:21.297Z,10.40
2018-09-25T00:52:55.672Z,10.30
2018-09-25T00:55:30.614Z,10.20
2018-09-25T00:58:05.170Z,10.10
2018-09-25T01:00:40.590Z,10.10
2018-09-25T01:03:15.090Z,10.00
2018-09-25T01:05:49.448Z,10.00
2018-09-25T01:08:24.633Z,9.90
2018-09-25T01:10:59.129Z,9.70
2018-09-25T01:13:33.425Z,9.70
2018-09-25T01:16:08.184Z,9.60
2018-09-25T01:18:42.752Z,9.60
2018-09-25T01:21:17.602Z,9.60
2018-09-25T01:23:51.948Z,9.10
2018-09-25T01:26:26.321Z,9.60
2018-09-25T01:29:00.695Z,9.60
2018-09-25T01:31:35.243Z,9.60
2018-09-25T01:34:09.715Z,9.60
2018-09-25T01:36:44.765Z,9.70
2018-09-25T01:39:19.041Z,9.70
2018-09-25T01:41:53.203Z,9.70
2018-09-25T01:44:27.357Z,9.70
2018-09-25T01:47:03.290Z,9.70
2018-09-25T01:49:38.438Z,10.90
2018-09-25T01:52:12.743Z,9.60
2018-09-25T01:54:47.849Z,9.60
2018-09-25T01:57:22.085Z,9.60
2018-09-25T01:59:57.163Z,9.50
2018-09-25T02:02:31.420Z,9.40
2018-09-25T02:05:06.486Z,9.50
2018-09-25T02:07:41.213Z,9.40
2018-09-25T02:10:15.966Z,9.40
2018-09-25T02:12:50.420Z,9.40
2018-09-25T02:15:24.894Z,9.30
2018-09-25T02:17:59.577Z,9.30
2018-09-25T02:20:33.920Z,9.30
2018-09-25T02:23:08.609Z,9.10
2018-09-25T02:25:43.140Z,9.10
2018-09-25T02:28:18.232Z,9.10
2018-09-25T02:30:52.437Z,9.00
2018-09-25T02:33:28.202Z,9.00
2018-09-25T02:36:02.406Z,9.10
2018-09-25T02:38:36.812Z,9.20
2018-09-25T02:41:11.554Z,9.20
2018-09-25T02:43:46.682Z,9.10
2018-09-25T02:46:21.502Z,9.10
2018-09-25T02:48:55.874Z,9.10
2018-09-25T02:51:30.513Z,10.20
2018-09-25T02:54:05.375Z,9.00
2018-09-25T02:56:40.118Z,9.00
2018-09-25T02:59:14.552Z,8.90
2018-09-25T03:01:48.712Z,9.00
2018-09-25T03:04:23.150Z,9.00
2018-09-25T03:06:57.993Z,8.80
2018-09-25T03:09:32.466Z,8.70
2018-09-25T03:12:07.035Z,8.70
2018-09-25T03:14:41.900Z,8.60
2018-09-25T03:17:16.545Z,8.60
2018-09-25T03:19:51.096Z,9.00
2018-09-25T03:22:25.469Z,8.50
2018-09-25T03:25:01.418Z,8.50
2018-09-25T03:27:36.212Z,8.60
2018-09-25T03:30:11.502Z,8.50
2018-09-25T03:32:46.386Z,8.40
2018-09-25T03:35:20.821Z,8.40
2018-09-25T03:37:55.241Z,8.40
2018-09-25T03:40:30.085Z,8.50
2018-09-25T03:43:05.063Z,8.50
2018-09-25T03:45:39.761Z,8.60
2018-09-25T03:48:14.132Z,8.50
2018-09-25T03:50:49.393Z,8.50
2018-09-25T03:53:24.073Z,8.50
2018-09-25T03:55:58.356Z,8.40
2018-09-25T03:58:32.582Z,8.50
2018-09-25T04:01:06.975Z,8.40
2018-09-25T04:03:42.012Z,8.30
2018-09-25T04:06:17.167Z,8.30
2018-09-25T04:08:52.448Z,8.30
2018-09-25T04:11:28.022Z,8.20
2018-09-25T04:14:03.448Z,8.30
2018-09-25T04:16:38.788Z,8.20
2018-09-25T04:19:14.211Z,8.20
2018-09-25T04:21:48.627Z,8.20
2018-09-25T04:24:24.932Z,8.20
2018-09-25T04:26:59.658Z,8.20
2018-09-25T04:29:35.209Z,8.10
2018-09-25T04:32:09.786Z,8.10
2018-09-25T04:34:44.367Z,8.00
2018-09-25T04:37:19.250Z,8.00
2018-09-25T04:39:53.498Z,8.10
2018-09-25T04:42:28.275Z,8.10
2018-09-25T04:45:05.345Z,8.00
2018-09-25T04:47:39.833Z,8.00
2018-09-25T04:50:14.697Z,8.00
2018-09-25T04:52:49.410Z,7.90
2018-09-25T04:55:24.287Z,7.90
2018-09-25T04:58:00.636Z,7.80
2018-09-25T05:00:36.338Z,7.80
2018-09-25T05:03:10.860Z,7.80
2018-09-25T05:05:53.864Z,7.80
2018-09-25T05:08:38.975Z,7.80
2018-09-25T05:11:22.378Z,7.80
2018-09-25T05:14:01.064Z,7.80
2018-09-25T05:16:40.088Z,7.70
2018-09-25T05:19:21.057Z,7.40
2018-09-25T05:21:59.919Z,7.70
2018-09-25T05:24:35.380Z,7.90
2018-09-25T05:27:12.551Z,7.80
2018-09-25T05:29:52.891Z,7.90
2018-09-25T05:32:37.833Z,8.00
2018-09-25T05:35:15.237Z,7.40
2018-09-25T05:37:49.776Z,8.00
2018-09-25T05:40:35.511Z,7.90
2018-09-25T05:43:19.527Z,7.90
2018-09-25T05:45:54.069Z,8.00
2018-09-25T05:48:28.973Z,7.90
2018-09-25T05:51:03.753Z,8.00
2018-09-25T05:53:40.718Z,7.90
2018-09-25T05:56:17.764Z,7.90
2018-09-25T05:58:52.652Z,7.80
2018-09-25T06:01:27.627Z,7.80
2018-09-25T06:04:03.241Z,7.90
2018-09-25T06:06:37.792Z,7.90
2018-09-25T06:09:14.747Z,7.30
2018-09-25T06:11:49.801Z,7.90
2018-09-25T06:14:25.825Z,7.90
2018-09-25T06:17:00.959Z,7.30
2018-09-25T06:19:36.294Z,8.00
2018-09-25T06:22:10.644Z,8.10
2018-09-25T06:24:49.196Z,8.10
2018-09-25T06:27:23.587Z,8.20
2018-09-25T06:29:58.578Z,8.10
2018-09-25T06:32:34.416Z,8.20
2018-09-25T06:35:09.434Z,8.20
2018-09-25T06:37:46.626Z,8.30
2018-09-25T06:40:21.976Z,8.30
2018-09-25T06:43:02.126Z,8.40
2018-09-25T06:45:38.447Z,8.40
2018-09-25T06:48:14.045Z,8.40
2018-09-25T06:50:49.444Z,8.40
2018-09-25T06:53:24.974Z,8.50
2018-09-25T06:56:00.077Z,8.60
2018-09-25T06:58:34.633Z,8.70
2018-09-25T07:01:10.096Z,8.70
2018-09-25T07:03:46.057Z,8.70
2018-09-25T07:06:22.393Z,8.60
2018-09-25T07:08:57.445Z,8.70
2018-09-25T07:11:32.278Z,8.80
2018-09-25T07:14:07.174Z,9.00
2018-09-25T07:16:41.815Z,9.10
2018-09-25T07:19:16.529Z,9.20
2018-09-25T07:21:51.271Z,9.20
2018-09-25T07:24:26.051Z,9.10
2018-09-25T07:27:02.536Z,9.20
2018-09-25T07:29:37.760Z,9.30
2018-09-25T07:32:12.738Z,10.50
2018-09-25T07:34:53.951Z,9.40
2018-09-25T07:37:31.062Z,9.50
2018-09-25T07:40:06.588Z,9.50
2018-09-25T07:42:42.420Z,9.30
2018-09-25T07:45:21.162Z,9.10
2018-09-25T07:47:56.140Z,8.90
2018-09-25T07:50:32.188Z,9.10
2018-09-25T07:53:07.159Z,9.10
2018-09-25T07:55:42.478Z,8.90
2018-09-25T07:58:20.458Z,9.00
2018-09-25T08:00:55.686Z,9.20
2018-09-25T08:03:32.760Z,9.40
2018-09-25T08:06:12.569Z,9.40
2018-09-25T08:08:50.840Z,9.70
2018-09-25T08:11:28.498Z,9.70
2018-09-25T08:14:05.805Z,9.70
2018-09-25T08:16:43.227Z,9.50
2018-09-25T08:19:22.226Z,9.20
2018-09-25T08:21:56.867Z,9.50
2018-09-25T08:24:36.089Z,9.70
2018-09-25T08:27:14.318Z,9.90
2018-09-25T08:29:49.399Z,9.70
2018-09-25T08:32:27.339Z,9.80
2018-09-25T08:35:01.828Z,9.90
2018-09-25T08:37:37.205Z,9.80
2018-09-25T08:40:13.032Z,9.90
2018-09-25T08:42:47.889Z,11.40
2018-09-25T08:45:22.825Z,11.00
2018-09-25T08:47:57.802Z,11.20
2018-09-25T08:50:32.789Z,11.30
2018-09-25T08:53:09.215Z,11.20
2018-09-25T08:55:45.901Z,11.10
2018-09-25T08:58:20.951Z,11.00
2018-09-25T09:00:55.679Z,11.00
2018-09-25T09:03:31.165Z,11.30
2018-09-25T09:06:09.379Z,11.30
2018-09-25T09:08:49.705Z,11.60
2018-09-25T09:11:27.214Z,11.60
2018-09-25T09:14:02.687Z,11.70
2018-09-25T09:16:42.884Z,11.70
2018-09-25T09:19:20.625Z,11.70
2018-09-25T09:21:57.052Z,11.70
2018-09-25T09:24:33.866Z,11.70
2018-09-25T09:27:11.250Z,11.80
2018-09-25T09:29:47.276Z,11.90
2018-09-25T09:32:23.099Z,12.10
2018-09-25T09:34:59.681Z,10.70
2018-09-25T09:37:35.103Z,12.10
2018-09-25T09:40:13.035Z,12.10
2018-09-25T09:42:48.199Z,12.20
2018-09-25T09:48:32.949Z,12.10
2018-09-25T09:51:08.084Z,12.70
2018-09-25T09:53:44.241Z,12.10
2018-09-25T09:56:19.273Z,12.30
2018-09-25T09:58:54.827Z,10.90
2018-09-25T10:01:32.099Z,12.60
2018-09-25T10:04:07.253Z,12.70
2018-09-25T10:06:42.215Z,12.80
2018-09-25T10:09:18.397Z,12.60
2018-09-25T10:11:54.070Z,12.60
2018-09-25T10:14:28.436Z,12.40
2018-09-25T10:17:04.622Z,12.30
2018-09-25T10:19:41.798Z,12.50
2018-09-25T10:22:16.224Z,12.50
2018-09-25T10:24:54.969Z,12.60
2018-09-25T10:27:30.328Z,12.80
2018-09-25T10:30:07.975Z,12.80
2018-09-25T10:32:45.113Z,12.70
2018-09-25T10:35:29.433Z,12.70
2018-09-25T10:38:06.391Z,12.70
2018-09-25T10:40:41.623Z,12.70
2018-09-25T10:43:18.868Z,12.80
2018-09-25T10:45:55.884Z,12.90
2018-09-25T10:48:35.704Z,12.80
2018-09-25T10:51:10.765Z,12.60
2018-09-25T10:53:45.951Z,12.70
2018-09-25T10:56:24.731Z,12.90
2018-09-25T10:59:01.152Z,13.10
2018-09-25T11:01:40.157Z,13.10
2018-09-25T11:04:23.512Z,12.90
2018-09-25T11:07:04.450Z,12.60
2018-09-25T11:09:42.111Z,12.60
2018-09-25T11:12:17.608Z,12.70
2018-09-25T11:14:58.008Z,12.90
2018-09-25T11:17:41.199Z,13.00
2018-09-25T11:20:19.451Z,13.10
2018-09-25T11:23:07.000Z,13.90
2018-09-25T11:25:49.082Z,13.00
2018-09-25T11:28:34.390Z,12.40
2018-09-25T11:31:12.994Z,13.10
2018-09-25T11:33:56.577Z,13.10
2018-09-25T11:36:32.499Z,13.10
2018-09-25T11:39:08.298Z,13.30
2018-09-25T11:41:50.715Z,13.50
2018-09-25T11:44:30.715Z,13.60
2018-09-25T11:47:06.276Z,13.60
2018-09-25T11:49:44.896Z,13.80
2018-09-25T11:52:21.849Z,13.80
2018-09-25T11:54:57.738Z,13.60
2018-09-25T11:57:32.788Z,13.40
2018-09-25T12:00:07.911Z,13.50
2018-09-25T12:02:43.630Z,13.40
2018-09-25T12:05:18.901Z,13.00
2018-09-25T12:07:55.199Z,13.10
2018-09-25T12:10:30.674Z,13.10
2018-09-25T12:13:07.288Z,13.50
2018-09-25T12:15:43.226Z,13.70
2018-09-25T12:18:23.499Z,13.80
2018-09-25T12:20:59.029Z,13.80
2018-09-25T12:23:34.114Z,13.90
2018-09-25T12:26:10.649Z,14.00
2018-09-25T12:28:45.702Z,13.80
2018-09-25T12:31:21.082Z,14.10
2018-09-25T12:33:56.291Z,14.10
2018-09-25T12:36:41.558Z,13.90
2018-09-25T12:39:22.579Z,14.20
2018-09-25T12:41:58.273Z,14.00
2018-09-25T12:44:32.589Z,13.80
2018-09-25T12:47:09.417Z,13.90
2018-09-25T12:49:44.980Z,14.10
2018-09-25T12:52:26.777Z,14.40
2018-09-25T12:55:05.602Z,14.40
2018-09-25T12:57:45.389Z,14.10
2018-09-25T13:00:20.500Z,14.40
2018-09-25T13:02:55.099Z,14.80
2018-09-25T13:05:30.777Z,14.90
2018-09-25T13:08:07.036Z,14.30
2018-09-25T13:10:44.443Z,14.00
2018-09-25T13:13:19.132Z,14.20
2018-09-25T13:15:56.348Z,14.00
2018-09-25T13:18:32.652Z,14.10
2018-09-25T13:21:14.250Z,14.30
2018-09-25T13:23:50.240Z,14.50
2018-09-25T13:26:26.409Z,13.40
2018-09-25T13:29:01.650Z,14.00
2018-09-25T13:31:42.104Z,14.10
2018-09-25T13:34:24.799Z,14.30
2018-09-25T13:37:04.241Z,14.10
2018-09-25T13:39:44.523Z,14.20
2018-09-25T13:42:23.039Z,14.20
2018-09-25T13:45:01.138Z,14.40
2018-09-25T13:47:39.790Z,14.70
2018-09-25T13:50:22.026Z,14.80
2018-09-25T13:53:02.101Z,15.00
2018-09-25T13:55:40.665Z,14.90
2018-09-25T13:58:18.260Z,15.00
2018-09-25T14:00:58.539Z,15.20
2018-09-25T14:03:48.533Z,15.20
2018-09-25T14:06:37.529Z,15.20
2018-09-25T14:09:41.417Z,15.20
2018-09-25T14:12:21.211Z,13.60
2018-09-25T14:14:58.993Z,15.50
2018-09-25T14:18:08.328Z,15.60
2018-09-25T14:20:48.556Z,15.30
2018-09-25T14:23:23.661Z,15.00
2018-09-25T14:26:02.298Z,15.00
2018-09-25T14:28:37.362Z,15.00
2018-09-25T14:31:22.867Z,15.20
2018-09-25T14:33:59.027Z,15.10
2018-09-25T14:36:33.661Z,15.10
2018-09-25T14:39:13.580Z,15.10
2018-09-25T14:41:52.936Z,15.20
2018-09-25T14:44:28.485Z,15.30
2018-09-25T14:47:03.181Z,15.10
2018-09-25T14:49:39.966Z,15.10
2018-09-25T14:52:14.574Z,16.60
2018-09-25T14:54:51.021Z,14.80
2018-09-25T14:57:26.575Z,14.80
2018-09-25T15:00:05.066Z,14.90
2018-09-25T15:02:43.922Z,14.80
2018-09-25T15:05:22.286Z,14.70
2018-09-25T15:08:02.922Z,14.80
2018-09-25T15:10:44.975Z,15.10
2018-09-25T15:13:25.372Z,15.10
2018-09-25T15:16:10.577Z,15.00
2018-09-25T15:18:53.245Z,14.80
2018-09-25T15:21:36.784Z,14.00
2018-09-25T15:24:25.322Z,15.00
2018-09-25T15:27:04.848Z,15.00
2018-09-25T15:29:47.615Z,15.10
2018-09-25T15:32:32.600Z,14.70
2018-09-25T15:35:16.107Z,14.50
2018-09-25T15:37:51.690Z,14.20
2018-09-25T15:40:37.793Z,14.30
2018-09-25T15:43:15.096Z,14.70
2018-09-25T15:45:55.480Z,15.20
2018-09-25T15:48:32.921Z,15.60
2018-09-25T15:51:07.690Z,15.90
2018-09-25T15:53:54.354Z,15.90
2018-09-25T15:56:35.313Z,15.20
2018-09-25T15:59:12.101Z,15.10
2018-09-25T16:01:52.348Z,15.00
2018-09-25T16:04:30.078Z,15.20
2018-09-25T16:07:11.323Z,15.30
2018-09-25T16:09:47.257Z,15.40
2018-09-25T16:12:23.295Z,15.40
2018-09-25T16:15:01.747Z,15.40
2018-09-25T16:17:36.288Z,15.30
2018-09-25T16:20:15.222Z,15.00
2018-09-25T16:22:49.571Z,15.00
2018-09-25T16:25:26.294Z,14.80
2018-09-25T16:28:02.309Z,14.50
2018-09-25T16:30:41.840Z,14.70
2018-09-25T16:33:18.455Z,14.90
2018-09-25T16:35:57.965Z,14.90
2018-09-25T16:38:33.175Z,15.10
2018-09-25T16:41:13.462Z,15.20
2018-09-25T16:43:49.206Z,15.30
2018-09-25T16:46:24.466Z,15.30
2018-09-25T16:48:59.192Z,15.20
2018-09-25T16:51:34.759Z,15.20
2018-09-25T16:54:12.389Z,15.20
2018-09-25T16:56:47.229Z,15.20
2018-09-25T16:59:25.484Z,15.10
2018-09-25T17:02:03.352Z,15.00
2018-09-25T17:04:38.635Z,15.20
2018-09-25T17:07:19.900Z,14.80
2018-09-25T17:09:57.020Z,14.70
2018-09-25T17:12:36.336Z,14.60
2018-09-25T17:15:19.746Z,14.50
2018-09-25T17:17:56.233Z,12.90
2018-09-25T17:20:41.155Z,14.30
2018-09-25T17:23:17.477Z,14.20
2018-09-25T17:25:52.200Z,14.20
2018-09-25T17:28:34.104Z,14.10
2018-09-25T17:31:09.182Z,14.70
2018-09-25T17:33:46.677Z,13.80
2018-09-25T17:36:25.684Z,13.60
2018-09-25T17:39:01.338Z,13.60
2018-09-25T17:41:41.081Z,13.60
2018-09-25T17:47:31.093Z,13.40
2018-09-25T17:50:06.926Z,13.40
2018-09-25T17:52:42.296Z,13.40
2018-09-25T17:55:23.094Z,13.30
2018-09-25T17:58:07.433Z,13.30
2018-09-25T18:00:43.184Z,13.30
2018-09-25T18:03:19.676Z,13.00
2018-09-25T18:05:59.359Z,13.00
2018-09-25T18:08:36.135Z,13.00
2018-09-25T18:11:13.192Z,12.90
2018-09-25T18:13:47.740Z,12.90
2018-09-25T18:16:24.348Z,12.90
2018-09-25T18:18:59.593Z,12.80
2018-09-25T18:21:41.219Z,12.80
2018-09-25T18:24:22.103Z,12.70
2018-09-25T18:27:04.149Z,12.60
2018-09-25T18:29:42.508Z,14.00
2018-09-25T18:32:23.229Z,12.40
2018-09-25T18:35:00.782Z,12.30
2018-09-25T18:37:40.242Z,12.30
2018-09-25T18:40:17.090Z,12.30
2018-09-25T18:42:58.251Z,12.20
2018-09-25T18:45:33.627Z,12.30
2018-09-25T18:48:10.596Z,12.30
2018-09-25T18:50:47.492Z,12.10
2018-09-25T18:53:24.086Z,12.10
2018-09-25T18:56:00.376Z,12.10
2018-09-25T18:58:37.101Z,12.10
2018-09-25T19:01:12.695Z,12.00
2018-09-25T19:03:48.329Z,10.90
2018-09-25T19:06:22.854Z,12.00
2018-09-25T19:09:00.546Z,12.00
2018-09-25T19:11:40.750Z,11.90
2018-09-25T19:14:16.131Z,11.90
2018-09-25T19:16:53.456Z,11.90
2018-09-25T19:19:32.219Z,11.80
2018-09-25T19:22:12.732Z,11.70
2018-09-25T19:24:53.078Z,11.70
2018-09-25T19:27:28.514Z,11.70
2018-09-25T19:30:09.253Z,11.60
2018-09-25T19:32:47.419Z,11.60
2018-09-25T19:35:23.214Z,11.60
2018-09-25T19:38:00.157Z,10.60
2018-09-25T19:40:41.181Z,9.60
2018-09-25T19:43:18.989Z,11.40
2018-09-25T19:45:55.156Z,11.50
2018-09-25T19:48:41.414Z,11.40
2018-09-25T19:51:17.499Z,11.40
2018-09-25T19:53:53.347Z,11.30
2018-09-25T19:56:29.091Z,11.50
2018-09-25T19:59:09.885Z,11.10
2018-09-25T20:01:47.361Z,11.10
2018-09-25T20:04:23.836Z,11.00
2018-09-25T20:06:59.623Z,11.00
2018-09-25T20:09:34.801Z,11.60
2018-09-25T20:12:09.871Z,10.80
2018-09-25T20:14:47.889Z,10.70
2018-09-25T20:17:23.547Z,10.70
2018-09-25T20:20:01.275Z,10.70
2018-09-25T20:22:37.857Z,10.50
2018-09-25T20:25:14.654Z,10.50
2018-09-25T20:27:49.189Z,10.50
2018-09-25T20:30:23.933Z,10.50
2018-09-25T20:32:58.518Z,10.40
2018-09-25T20:35:35.862Z,10.30
2018-09-25T20:38:11.185Z,10.20
2018-09-25T20:40:46.621Z,10.30
2018-09-25T20:43:21.422Z,10.30
2018-09-25T20:45:58.199Z,10.30
2018-09-25T20:48:33.247Z,10.30
2018-09-25T20:51:08.253Z,10.40
2018-09-25T20:53:43.189Z,10.30
2018-09-25T20:56:17.479Z,10.30
2018-09-25T20:58:52.995Z,10.20
2018-09-25T21:01:27.577Z,10.20
2018-09-25T21:04:03.242Z,10.20
2018-09-25T21:06:40.323Z,10.10
2018-09-25T21:09:15.207Z,9.40
2018-09-25T21:11:51.465Z,10.10
2018-09-25T21:14:26.798Z,10.00
2018-09-25T21:17:02.181Z,10.00
2018-09-25T21:19:36.748Z,10.10
2018-09-25T21:22:11.408Z,10.10
2018-09-25T21:24:45.672Z,10.00
2018-09-25T21:27:20.590Z,10.00
2018-09-25T21:29:56.903Z,10.10
2018-09-25T21:32:32.257Z,10.00
2018-09-25T21:35:06.673Z,9.80
2018-09-25T21:37:41.556Z,9.80
2018-09-25T21:40:15.892Z,7.80
2018-09-25T21:42:51.121Z,9.80
2018-09-25T21:45:25.988Z,9.80
2018-09-25T21:48:00.553Z,9.80
2018-09-25T21:50:35.194Z,9.70
2018-09-25T21:53:10.035Z,9.00
2018-09-25T21:55:46.123Z,9.70
2018-09-25T21:58:20.721Z,9.70
2018-09-25T22:00:55.189Z,9.70
2018-09-25T22:03:30.233Z,9.60
2018-09-25T22:06:05.617Z,9.60
2018-09-25T22:08:40.513Z,9.50
2018-09-25T22:11:16.752Z,9.60
2018-09-25T22:13:51.461Z,9.60
2018-09-25T22:16:25.822Z,9.50
2018-09-25T22:19:01.195Z,9.60
2018-09-25T22:21:36.866Z,8.60
2018-09-25T22:24:13.492Z,9.40
2018-09-25T22:26:48.591Z,9.40
2018-09-25T22:29:23.361Z,9.40
2018-09-25T22:31:58.798Z,10.20
2018-09-25T22:34:33.399Z,9.40
2018-09-25T22:37:07.716Z,9.30
2018-09-25T22:39:42.848Z,9.40
2018-09-25T22:42:17.369Z,7.20
2018-09-25T22:44:51.641Z,9.30
2018-09-25T22:47:26.780Z,9.30
2018-09-25T22:50:01.686Z,9.30
2018-09-25T22:52:37.142Z,9.30
2018-09-25T22:55:11.758Z,9.20
2018-09-25T22:57:46.075Z,9.20
2018-09-25T23:00:20.929Z,9.20
2018-09-25T23:02:55.320Z,9.20
2018-09-25T23:05:29.961Z,9.20
2018-09-25T23:14:59.075Z,9.20
2018-09-25T23:17:33.453Z,9.20
2018-09-25T23:20:08.087Z,9.10
2018-09-25T23:22:42.949Z,10.40
2018-09-25T23:25:17.854Z,9.20
2018-09-25T23:27:52.891Z,9.20
2018-09-25T23:30:27.073Z,9.30
2018-09-25T23:33:01.467Z,9.20
2018-09-25T23:35:35.970Z,9.30
2018-09-25T23:38:10.543Z,9.30
2018-09-25T23:40:50.665Z,9.30
2018-09-25T23:43:23.997Z,9.30
2018-09-25T23:45:59.354Z,9.30
2018-09-25T23:48:42.036Z,9.30
2018-09-25T23:51:48.735Z,9.20
2018-09-25T23:54:54.372Z,9.20
2018-09-25T23:57:31.470Z,9.20
